sensor_id;sensor_type;location;lat;lon;timestamp;P1;durP1;ratioP1;P2;durP2;ratioP2
24609;SDS011;77159;47.890;11.694;2024-03-23T00:52:47;2.10;;;1.57;;
24609;SDS011;77159;47.890;11.694;2024-03-23T00:55:14;1.30;;;1.20;;
24609;SDS011;77159;47.890;11.694;2024-03-23T00:57:39;1.40;;;1.30;;
24609;SDS011;77159;47.890;11.694;2024-03-23T01:00:06;1.17;;;1.07;;
24609;SDS011;77159;47.890;11.694;2024-03-23T01:02:35;1.50;;;1.40;;
24609;SDS011;77159;47.890;11.694;2024-03-23T01:05:01;1.20;;;1.10;;
24609;SDS011;77159;47.890;11.694;2024-03-23T01:07:28;2.30;;;1.53;;
24609;SDS011;77159;47.890;11.694;2024-03-23T01:09:54;1.37;;;1.20;;
24609;SDS011;77159;47.890;11.694;2024-03-23T01:12:20;1.80;;;1.47;;
24609;SDS011;77159;47.890;11.694;2024-03-23T01:14:47;1.77;;;1.40;;
24609;SDS011;77159;47.890;11.694;2024-03-23T01:17:12;1.27;;;1.17;;
24609;SDS011;77159;47.890;11.694;2024-03-23T01:19:39;1.87;;;1.37;;
24609;SDS011;77159;47.890;11.694;2024-03-23T01:22:06;1.37;;;1.27;;
24609;SDS011;77159;47.890;11.694;2024-03-23T01:24:32;1.47;;;1.37;;
24609;SDS011;77159;47.890;11.694;2024-03-23T01:26:59;1.43;;;1.33;;
24609;SDS011;77159;47.890;11.694;2024-03-23T01:29:25;1.30;;;1.20;;
24609;SDS011;77159;47.890;11.694;2024-03-23T01:31:51;1.93;;;1.30;;
24609;SDS011;77159;47.890;11.694;2024-03-23T01:34:17;1.60;;;1.40;;
24609;SDS011;77159;47.890;11.694;2024-03-23T01:36:44;2.13;;;1.47;;
24609;SDS011;77159;47.890;11.694;2024-03-23T01:39:11;1.30;;;1.20;;
24609;SDS011;77159;47.890;11.694;2024-03-23T01:41:37;1.17;;;1.13;;
24609;SDS011;77159;47.890;11.694;2024-03-23T01:44:07;1.47;;;1.37;;
24609;SDS011;77159;47.890;11.694;2024-03-23T01:46:34;1.50;;;1.20;;
24609;SDS011;77159;47.890;11.694;2024-03-23T01:49:00;5.20;;;1.40;;
24609;SDS011;77159;47.890;11.694;2024-03-23T01:51:26;3.33;;;1.20;;
24609;SDS011;77159;47.890;11.694;2024-03-23T01:53:54;3.63;;;1.50;;
24609;SDS011;77159;47.890;11.694;2024-03-23T01:56:22;1.40;;;1.30;;
24609;SDS011;77159;47.890;11.694;2024-03-23T01:58:48;1.30;;;1.20;;
24609;SDS011;77159;47.890;11.694;2024-03-23T02:01:15;1.10;;;1.10;;
24609;SDS011;77159;47.890;11.694;2024-03-23T02:03:41;1.23;;;1.10;;
24609;SDS011;77159;47.890;11.694;2024-03-23T02:06:07;1.87;;;1.20;;
24609;SDS011;77159;47.890;11.694;2024-03-23T02:08:34;2.37;;;1.20;;
24609;SDS011;77159;47.890;11.694;2024-03-23T02:11:00;1.23;;;1.13;;
24609;SDS011;77159;47.890;11.694;2024-03-23T02:13:26;1.70;;;1.37;;
24609;SDS011;77159;47.890;11.694;2024-03-23T02:15:52;1.10;;;1.00;;
24609;SDS011;77159;47.890;11.694;2024-03-23T02:18:19;2.37;;;1.10;;
24609;SDS011;77159;47.890;11.694;2024-03-23T02:20:45;1.17;;;1.07;;
24609;SDS011;77159;47.890;11.694;2024-03-23T02:23:15;1.07;;;1.00;;
24609;SDS011;77159;47.890;11.694;2024-03-23T02:25:41;1.20;;;1.10;;
24609;SDS011;77159;47.890;11.694;2024-03-23T02:28:08;1.67;;;1.20;;
24609;SDS011;77159;47.890;11.694;2024-03-23T02:30:33;1.20;;;1.10;;
24609;SDS011;77159;47.890;11.694;2024-03-23T02:33:00;1.40;;;1.20;;
24609;SDS011;77159;47.890;11.694;2024-03-23T02:35:26;1.37;;;1.27;;
24609;SDS011;77159;47.890;11.694;2024-03-23T02:37:52;1.00;;;0.90;;
24609;SDS011;77159;47.890;11.694;2024-03-23T02:40:19;1.07;;;1.00;;
24609;SDS011;77159;47.890;11.694;2024-03-23T02:42:45;1.03;;;0.97;;
24609;SDS011;77159;47.890;11.694;2024-03-23T02:45:11;1.80;;;1.00;;
24609;SDS011;77159;47.890;11.694;2024-03-23T02:47:37;1.03;;;1.03;;
24609;SDS011;77159;47.890;11.694;2024-03-23T02:50:04;1.40;;;1.30;;
24609;SDS011;77159;47.890;11.694;2024-03-23T02:52:31;1.40;;;1.00;;
24609;SDS011;77159;47.890;11.694;2024-03-23T02:54:57;1.27;;;1.10;;
24609;SDS011;77159;47.890;11.694;2024-03-23T02:57:24;1.30;;;1.10;;
24609;SDS011;77159;47.890;11.694;2024-03-23T02:59:50;1.73;;;1.30;;
24609;SDS011;77159;47.890;11.694;2024-03-23T03:02:16;1.10;;;1.10;;
24609;SDS011;77159;47.890;11.694;2024-03-23T03:04:42;1.30;;;1.20;;
24609;SDS011;77159;47.890;11.694;2024-03-23T03:07:08;2.20;;;1.40;;
24609;SDS011;77159;47.890;11.694;2024-03-23T03:09:34;1.47;;;1.13;;
24609;SDS011;77159;47.890;11.694;2024-03-23T03:12:00;1.00;;;1.00;;
24609;SDS011;77159;47.890;11.694;2024-03-23T03:14:27;1.20;;;1.10;;
24609;SDS011;77159;47.890;11.694;2024-03-23T03:16:53;1.10;;;1.00;;
24609;SDS011;77159;47.890;11.694;2024-03-23T03:19:19;0.90;;;0.90;;
24609;SDS011;77159;47.890;11.694;2024-03-23T03:21:45;1.00;;;1.00;;
24609;SDS011;77159;47.890;11.694;2024-03-23T03:24:12;1.43;;;1.07;;
24609;SDS011;77159;47.890;11.694;2024-03-23T03:26:39;1.13;;;1.10;;
24609;SDS011;77159;47.890;11.694;2024-03-23T03:29:05;0.97;;;0.97;;
24609;SDS011;77159;47.890;11.694;2024-03-23T03:31:31;0.70;;;0.70;;
24609;SDS011;77159;47.890;11.694;2024-03-23T03:33:57;2.83;;;1.00;;
24609;SDS011;77159;47.890;11.694;2024-03-23T03:36:24;0.90;;;0.90;;
24609;SDS011;77159;47.890;11.694;2024-03-23T03:38:50;1.30;;;1.00;;
24609;SDS011;77159;47.890;11.694;2024-03-23T03:41:16;1.10;;;1.00;;
24609;SDS011;77159;47.890;11.694;2024-03-23T03:43:44;2.73;;;1.10;;
24609;SDS011;77159;47.890;11.694;2024-03-23T03:46:10;0.90;;;0.90;;
24609;SDS011;77159;47.890;11.694;2024-03-23T03:48:36;1.63;;;0.80;;
24609;SDS011;77159;47.890;11.694;2024-03-23T03:51:03;1.40;;;1.10;;
24609;SDS011;77159;47.890;11.694;2024-03-23T03:53:29;1.93;;;1.10;;
24609;SDS011;77159;47.890;11.694;2024-03-23T03:55:55;1.43;;;1.00;;
24609;SDS011;77159;47.890;11.694;2024-03-23T03:58:21;0.90;;;0.90;;
24609;SDS011;77159;47.890;11.694;2024-03-23T04:00:48;2.10;;;1.90;;
24609;SDS011;77159;47.890;11.694;2024-03-23T04:03:13;1.43;;;1.20;;
24609;SDS011;77159;47.890;11.694;2024-03-23T04:05:40;1.87;;;1.20;;
24609;SDS011;77159;47.890;11.694;2024-03-23T04:08:06;1.47;;;1.30;;
24609;SDS011;77159;47.890;11.694;2024-03-23T04:10:33;1.17;;;0.97;;
24609;SDS011;77159;47.890;11.694;2024-03-23T04:12:59;0.90;;;0.83;;
24609;SDS011;77159;47.890;11.694;2024-03-23T04:15:26;1.50;;;1.07;;
24609;SDS011;77159;47.890;11.694;2024-03-23T04:17:52;1.57;;;0.83;;
24609;SDS011;77159;47.890;11.694;2024-03-23T04:20:18;1.03;;;1.00;;
24609;SDS011;77159;47.890;11.694;2024-03-23T04:22:45;1.10;;;1.00;;
24609;SDS011;77159;47.890;11.694;2024-03-23T04:25:11;0.90;;;0.80;;
24609;SDS011;77159;47.890;11.694;2024-03-23T04:27:38;1.03;;;1.00;;
24609;SDS011;77159;47.890;11.694;2024-03-23T04:30:06;1.07;;;1.00;;
24609;SDS011;77159;47.890;11.694;2024-03-23T04:32:36;1.10;;;1.00;;
24609;SDS011;77159;47.890;11.694;2024-03-23T04:35:02;1.53;;;1.07;;
24609;SDS011;77159;47.890;11.694;2024-03-23T04:37:31;1.20;;;1.10;;
24609;SDS011;77159;47.890;11.694;2024-03-23T04:39:58;1.03;;;1.03;;
24609;SDS011;77159;47.890;11.694;2024-03-23T04:42:25;1.93;;;0.93;;
24609;SDS011;77159;47.890;11.694;2024-03-23T04:44:51;1.00;;;1.00;;
24609;SDS011;77159;47.890;11.694;2024-03-23T04:47:17;1.47;;;1.07;;
24609;SDS011;77159;47.890;11.694;2024-03-23T04:49:43;1.00;;;0.80;;
24609;SDS011;77159;47.890;11.694;2024-03-23T04:52:09;0.80;;;0.80;;
24609;SDS011;77159;47.890;11.694;2024-03-23T04:54:35;0.93;;;0.73;;
24609;SDS011;77159;47.890;11.694;2024-03-23T04:57:02;1.53;;;0.97;;
24609;SDS011;77159;47.890;11.694;2024-03-23T04:59:28;1.30;;;1.20;;
24609;SDS011;77159;47.890;11.694;2024-03-23T05:01:54;0.97;;;0.97;;
24609;SDS011;77159;47.890;11.694;2024-03-23T05:04:20;1.10;;;1.00;;
24609;SDS011;77159;47.890;11.694;2024-03-23T05:06:46;0.90;;;0.70;;
24609;SDS011;77159;47.890;11.694;2024-03-23T05:09:12;1.00;;;1.00;;
24609;SDS011;77159;47.890;11.694;2024-03-23T05:11:38;1.27;;;1.00;;
24609;SDS011;77159;47.890;11.694;2024-03-23T05:14:05;1.27;;;0.83;;
24609;SDS011;77159;47.890;11.694;2024-03-23T05:16:31;1.10;;;1.10;;
24609;SDS011;77159;47.890;11.694;2024-03-23T05:18:57;0.87;;;0.87;;
24609;SDS011;77159;47.890;11.694;2024-03-23T05:21:24;1.93;;;0.70;;
24609;SDS011;77159;47.890;11.694;2024-03-23T05:23:50;1.50;;;1.00;;
24609;SDS011;77159;47.890;11.694;2024-03-23T05:26:16;1.27;;;1.17;;
24609;SDS011;77159;47.890;11.694;2024-03-23T05:28:42;1.73;;;0.97;;
24609;SDS011;77159;47.890;11.694;2024-03-23T05:31:09;1.17;;;0.83;;
24609;SDS011;77159;47.890;11.694;2024-03-23T05:33:35;2.43;;;1.00;;
24609;SDS011;77159;47.890;11.694;2024-03-23T05:36:03;0.77;;;0.77;;
24609;SDS011;77159;47.890;11.694;2024-03-23T05:38:30;1.53;;;1.00;;
24609;SDS011;77159;47.890;11.694;2024-03-23T05:40:56;1.43;;;0.90;;
24609;SDS011;77159;47.890;11.694;2024-03-23T05:43:25;1.10;;;1.00;;
24609;SDS011;77159;47.890;11.694;2024-03-23T05:45:54;0.90;;;0.90;;
24609;SDS011;77159;47.890;11.694;2024-03-23T05:48:22;0.83;;;0.83;;
24609;SDS011;77159;47.890;11.694;2024-03-23T05:50:49;0.90;;;0.90;;
24609;SDS011;77159;47.890;11.694;2024-03-23T05:53:15;0.90;;;0.90;;
24609;SDS011;77159;47.890;11.694;2024-03-23T05:55:42;1.10;;;1.00;;
24609;SDS011;77159;47.890;11.694;2024-03-23T05:58:08;0.87;;;0.87;;
24609;SDS011;77159;47.890;11.694;2024-03-23T06:00:35;0.87;;;0.83;;
24609;SDS011;77159;47.890;11.694;2024-03-23T06:03:01;1.93;;;1.10;;
24609;SDS011;77159;47.890;11.694;2024-03-23T06:05:28;1.00;;;0.70;;
24609;SDS011;77159;47.890;11.694;2024-03-23T06:07:54;0.80;;;0.80;;
24609;SDS011;77159;47.890;11.694;2024-03-23T06:10:20;1.20;;;0.90;;
24609;SDS011;77159;47.890;11.694;2024-03-23T06:12:46;1.77;;;0.93;;
24609;SDS011;77159;47.890;11.694;2024-03-23T06:15:12;0.70;;;0.70;;
24609;SDS011;77159;47.890;11.694;2024-03-23T06:17:38;0.93;;;0.83;;
24609;SDS011;77159;47.890;11.694;2024-03-23T06:20:05;1.03;;;0.93;;
24609;SDS011;77159;47.890;11.694;2024-03-23T06:22:33;1.03;;;0.93;;
24609;SDS011;77159;47.890;11.694;2024-03-23T06:24:59;0.87;;;0.87;;
24609;SDS011;77159;47.890;11.694;2024-03-23T06:27:25;0.70;;;0.70;;
24609;SDS011;77159;47.890;11.694;2024-03-23T06:29:51;0.90;;;0.90;;
24609;SDS011;77159;47.890;11.694;2024-03-23T06:32:17;0.80;;;0.80;;
24609;SDS011;77159;47.890;11.694;2024-03-23T06:34:43;0.67;;;0.67;;
24609;SDS011;77159;47.890;11.694;2024-03-23T06:37:10;1.97;;;0.90;;
24609;SDS011;77159;47.890;11.694;2024-03-23T06:39:37;1.27;;;1.00;;
24609;SDS011;77159;47.890;11.694;2024-03-23T06:42:04;0.80;;;0.80;;
24609;SDS011;77159;47.890;11.694;2024-03-23T06:44:30;0.77;;;0.77;;
24609;SDS011;77159;47.890;11.694;2024-03-23T06:46:57;0.80;;;0.80;;
24609;SDS011;77159;47.890;11.694;2024-03-23T06:49:23;1.17;;;0.63;;
24609;SDS011;77159;47.890;11.694;2024-03-23T06:51:49;0.70;;;0.70;;
24609;SDS011;77159;47.890;11.694;2024-03-23T06:54:16;2.10;;;1.00;;
24609;SDS011;77159;47.890;11.694;2024-03-23T06:56:44;0.60;;;0.60;;
24609;SDS011;77159;47.890;11.694;2024-03-23T06:59:10;0.77;;;0.77;;
24609;SDS011;77159;47.890;11.694;2024-03-23T07:01:36;1.03;;;0.70;;
24609;SDS011;77159;47.890;11.694;2024-03-23T07:04:02;1.43;;;0.87;;
24609;SDS011;77159;47.890;11.694;2024-03-23T07:06:29;0.60;;;0.60;;
24609;SDS011;77159;47.890;11.694;2024-03-23T07:08:55;0.70;;;0.70;;
24609;SDS011;77159;47.890;11.694;2024-03-23T07:11:21;0.80;;;0.80;;
24609;SDS011;77159;47.890;11.694;2024-03-23T07:13:49;0.80;;;0.80;;
24609;SDS011;77159;47.890;11.694;2024-03-23T07:16:16;1.03;;;0.80;;
24609;SDS011;77159;47.890;11.694;2024-03-23T07:18:42;1.03;;;0.93;;
24609;SDS011;77159;47.890;11.694;2024-03-23T07:21:09;2.10;;;0.83;;
24609;SDS011;77159;47.890;11.694;2024-03-23T07:23:35;1.67;;;0.90;;
24609;SDS011;77159;47.890;11.694;2024-03-23T07:26:02;0.57;;;0.57;;
24609;SDS011;77159;47.890;11.694;2024-03-23T07:28:29;0.93;;;0.80;;
24609;SDS011;77159;47.890;11.694;2024-03-23T07:31:04;0.90;;;0.80;;
24609;SDS011;77159;47.890;11.694;2024-03-23T07:33:32;1.70;;;0.90;;
24609;SDS011;77159;47.890;11.694;2024-03-23T07:35:58;1.23;;;0.80;;
24609;SDS011;77159;47.890;11.694;2024-03-23T07:38:25;0.90;;;0.70;;
24609;SDS011;77159;47.890;11.694;2024-03-23T07:41:02;0.80;;;0.80;;
24609;SDS011;77159;47.890;11.694;2024-03-23T07:43:29;1.53;;;0.80;;
24609;SDS011;77159;47.890;11.694;2024-03-23T07:45:55;0.70;;;0.70;;
24609;SDS011;77159;47.890;11.694;2024-03-23T07:48:22;1.63;;;0.70;;
24609;SDS011;77159;47.890;11.694;2024-03-23T07:50:55;2.10;;;1.10;;
24609;SDS011;77159;47.890;11.694;2024-03-23T07:53:25;0.83;;;0.83;;
24609;SDS011;77159;47.890;11.694;2024-03-23T07:55:53;1.10;;;1.00;;
24609;SDS011;77159;47.890;11.694;2024-03-23T07:58:20;0.60;;;0.60;;
24609;SDS011;77159;47.890;11.694;2024-03-23T08:00:47;0.70;;;0.70;;
24609;SDS011;77159;47.890;11.694;2024-03-23T08:03:13;1.10;;;1.00;;
24609;SDS011;77159;47.890;11.694;2024-03-23T08:05:39;1.67;;;0.83;;
24609;SDS011;77159;47.890;11.694;2024-03-23T08:08:06;1.20;;;1.10;;
24609;SDS011;77159;47.890;11.694;2024-03-23T08:10:32;1.43;;;1.30;;
24609;SDS011;77159;47.890;11.694;2024-03-23T08:12:58;1.40;;;1.00;;
24609;SDS011;77159;47.890;11.694;2024-03-23T08:15:24;3.43;;;1.30;;
24609;SDS011;77159;47.890;11.694;2024-03-23T08:17:50;1.40;;;1.30;;
24609;SDS011;77159;47.890;11.694;2024-03-23T08:20:16;1.40;;;1.20;;
24609;SDS011;77159;47.890;11.694;2024-03-23T08:22:43;2.10;;;1.33;;
24609;SDS011;77159;47.890;11.694;2024-03-23T08:25:09;2.03;;;1.80;;
24609;SDS011;77159;47.890;11.694;2024-03-23T08:27:35;1.43;;;1.33;;
24609;SDS011;77159;47.890;11.694;2024-03-23T08:30:01;2.00;;;1.23;;
24609;SDS011;77159;47.890;11.694;2024-03-23T08:32:27;1.13;;;1.00;;
24609;SDS011;77159;47.890;11.694;2024-03-23T08:34:53;0.97;;;0.87;;
24609;SDS011;77159;47.890;11.694;2024-03-23T08:37:20;0.80;;;0.80;;
24609;SDS011;77159;47.890;11.694;2024-03-23T08:39:47;0.90;;;0.80;;
24609;SDS011;77159;47.890;11.694;2024-03-23T08:42:15;0.60;;;0.60;;
24609;SDS011;77159;47.890;11.694;2024-03-23T08:44:42;1.80;;;0.80;;
24609;SDS011;77159;47.890;11.694;2024-03-23T08:47:11;0.40;;;0.40;;
24609;SDS011;77159;47.890;11.694;2024-03-23T08:49:37;0.70;;;0.70;;
24609;SDS011;77159;47.890;11.694;2024-03-23T08:52:03;0.70;;;0.70;;
24609;SDS011;77159;47.890;11.694;2024-03-23T08:54:30;0.40;;;0.40;;
24609;SDS011;77159;47.890;11.694;2024-03-23T08:56:57;1.83;;;0.67;;
24609;SDS011;77159;47.890;11.694;2024-03-23T08:59:23;0.73;;;0.70;;
24609;SDS011;77159;47.890;11.694;2024-03-23T09:01:49;0.77;;;0.77;;
24609;SDS011;77159;47.890;11.694;2024-03-23T09:04:15;0.80;;;0.80;;
24609;SDS011;77159;47.890;11.694;2024-03-23T09:06:42;0.70;;;0.70;;
24609;SDS011;77159;47.890;11.694;2024-03-23T09:09:08;1.73;;;1.00;;
24609;SDS011;77159;47.890;11.694;2024-03-23T09:11:34;1.07;;;0.97;;
24609;SDS011;77159;47.890;11.694;2024-03-23T09:14:01;0.80;;;0.80;;
24609;SDS011;77159;47.890;11.694;2024-03-23T09:16:27;1.07;;;0.97;;
24609;SDS011;77159;47.890;11.694;2024-03-23T09:18:53;0.90;;;0.80;;
24609;SDS011;77159;47.890;11.694;2024-03-23T09:21:19;0.93;;;0.90;;
24609;SDS011;77159;47.890;11.694;2024-03-23T09:23:45;1.03;;;1.03;;
24609;SDS011;77159;47.890;11.694;2024-03-23T09:26:12;0.93;;;0.93;;
24609;SDS011;77159;47.890;11.694;2024-03-23T09:28:38;0.97;;;0.97;;
24609;SDS011;77159;47.890;11.694;2024-03-23T09:31:05;0.93;;;0.93;;
24609;SDS011;77159;47.890;11.694;2024-03-23T09:33:32;1.43;;;0.73;;
24609;SDS011;77159;47.890;11.694;2024-03-23T09:36:02;1.00;;;0.70;;
24609;SDS011;77159;47.890;11.694;2024-03-23T09:38:28;0.87;;;0.80;;
24609;SDS011;77159;47.890;11.694;2024-03-23T09:40:55;0.70;;;0.70;;
24609;SDS011;77159;47.890;11.694;2024-03-23T09:43:22;1.90;;;0.83;;
24609;SDS011;77159;47.890;11.694;2024-03-23T09:45:48;0.70;;;0.70;;
24609;SDS011;77159;47.890;11.694;2024-03-23T09:48:15;0.70;;;0.70;;
24609;SDS011;77159;47.890;11.694;2024-03-23T09:50:42;0.73;;;0.73;;
24609;SDS011;77159;47.890;11.694;2024-03-23T09:53:09;0.70;;;0.70;;
24609;SDS011;77159;47.890;11.694;2024-03-23T09:55:37;1.63;;;0.63;;
24609;SDS011;77159;47.890;11.694;2024-03-23T09:58:04;1.00;;;0.90;;
24609;SDS011;77159;47.890;11.694;2024-03-23T10:00:31;0.80;;;0.80;;
24609;SDS011;77159;47.890;11.694;2024-03-23T10:02:57;0.80;;;0.80;;
24609;SDS011;77159;47.890;11.694;2024-03-23T10:05:27;0.83;;;0.83;;
24609;SDS011;77159;47.890;11.694;2024-03-23T10:07:54;0.87;;;0.87;;
24609;SDS011;77159;47.890;11.694;2024-03-23T10:10:20;1.40;;;1.10;;
24609;SDS011;77159;47.890;11.694;2024-03-23T10:12:47;0.50;;;0.50;;
24609;SDS011;77159;47.890;11.694;2024-03-23T10:15:18;0.63;;;0.63;;
24609;SDS011;77159;47.890;11.694;2024-03-23T10:17:45;0.50;;;0.50;;
24609;SDS011;77159;47.890;11.694;2024-03-23T10:20:12;0.60;;;0.60;;
24609;SDS011;77159;47.890;11.694;2024-03-23T10:22:39;0.67;;;0.67;;
24609;SDS011;77159;47.890;11.694;2024-03-23T10:25:08;0.50;;;0.50;;
24609;SDS011;77159;47.890;11.694;2024-03-23T10:27:36;0.60;;;0.57;;
24609;SDS011;77159;47.890;11.694;2024-03-23T10:30:09;0.77;;;0.70;;
24609;SDS011;77159;47.890;11.694;2024-03-23T10:32:37;0.40;;;0.40;;
24609;SDS011;77159;47.890;11.694;2024-03-23T10:35:13;0.37;;;0.30;;
24609;SDS011;77159;47.890;11.694;2024-03-23T10:37:41;0.33;;;0.33;;
24609;SDS011;77159;47.890;11.694;2024-03-23T10:40:09;0.90;;;0.40;;
24609;SDS011;77159;47.890;11.694;2024-03-23T10:42:37;0.40;;;0.40;;
24609;SDS011;77159;47.890;11.694;2024-03-23T10:45:04;0.30;;;0.30;;
24609;SDS011;77159;47.890;11.694;2024-03-23T10:47:32;0.50;;;0.50;;
24609;SDS011;77159;47.890;11.694;2024-03-23T10:50:00;0.40;;;0.40;;
24609;SDS011;77159;47.890;11.694;2024-03-23T10:52:26;0.30;;;0.30;;
24609;SDS011;77159;47.890;11.694;2024-03-23T10:54:53;0.73;;;0.50;;
24609;SDS011;77159;47.890;11.694;2024-03-23T10:57:21;0.40;;;0.40;;
24609;SDS011;77159;47.890;11.694;2024-03-23T10:59:54;0.40;;;0.40;;
24609;SDS011;77159;47.890;11.694;2024-03-23T11:02:21;0.37;;;0.37;;
24609;SDS011;77159;47.890;11.694;2024-03-23T11:04:48;0.50;;;0.50;;
24609;SDS011;77159;47.890;11.694;2024-03-23T11:07:29;0.40;;;0.40;;
24609;SDS011;77159;47.890;11.694;2024-03-23T11:09:57;0.57;;;0.50;;
24609;SDS011;77159;47.890;11.694;2024-03-23T11:12:28;0.63;;;0.47;;
24609;SDS011;77159;47.890;11.694;2024-03-23T11:14:59;1.33;;;0.43;;
24609;SDS011;77159;47.890;11.694;2024-03-23T11:17:28;0.20;;;0.20;;
24609;SDS011;77159;47.890;11.694;2024-03-23T11:19:56;0.40;;;0.40;;
24609;SDS011;77159;47.890;11.694;2024-03-23T11:25:15;0.20;;;0.20;;
24609;SDS011;77159;47.890;11.694;2024-03-23T11:27:43;2.33;;;0.50;;
24609;SDS011;77159;47.890;11.694;2024-03-23T11:30:14;0.30;;;0.30;;
24609;SDS011;77159;47.890;11.694;2024-03-23T11:32:42;1.10;;;0.40;;
24609;SDS011;77159;47.890;11.694;2024-03-23T11:35:10;0.50;;;0.50;;
24609;SDS011;77159;47.890;11.694;2024-03-23T11:38:00;1.60;;;0.60;;
24609;SDS011;77159;47.890;11.694;2024-03-23T11:40:32;1.47;;;0.80;;
24609;SDS011;77159;47.890;11.694;2024-03-23T11:42:59;0.67;;;0.67;;
24609;SDS011;77159;47.890;11.694;2024-03-23T11:45:26;0.77;;;0.77;;
24609;SDS011;77159;47.890;11.694;2024-03-23T11:48:04;0.80;;;0.80;;
24609;SDS011;77159;47.890;11.694;2024-03-23T11:50:32;0.80;;;0.80;;
24609;SDS011;77159;47.890;11.694;2024-03-23T11:53:08;1.47;;;0.70;;
24609;SDS011;77159;47.890;11.694;2024-03-23T11:55:47;0.60;;;0.60;;
24609;SDS011;77159;47.890;11.694;2024-03-23T11:58:14;1.73;;;0.67;;
24609;SDS011;77159;47.890;11.694;2024-03-23T12:00:42;1.03;;;0.43;;
24609;SDS011;77159;47.890;11.694;2024-03-23T12:03:17;1.07;;;0.87;;
24609;SDS011;77159;47.890;11.694;2024-03-23T12:05:47;2.10;;;0.77;;
24609;SDS011;77159;47.890;11.694;2024-03-23T12:08:19;0.70;;;0.70;;
24609;SDS011;77159;47.890;11.694;2024-03-23T12:10:48;0.90;;;0.60;;
24609;SDS011;77159;47.890;11.694;2024-03-23T12:13:16;0.67;;;0.67;;
24609;SDS011;77159;47.890;11.694;2024-03-23T12:15:44;1.03;;;0.50;;
24609;SDS011;77159;47.890;11.694;2024-03-23T12:18:11;1.07;;;0.90;;
24609;SDS011;77159;47.890;11.694;2024-03-23T12:20:38;1.17;;;0.77;;
24609;SDS011;77159;47.890;11.694;2024-03-23T12:23:08;1.13;;;0.70;;
24609;SDS011;77159;47.890;11.694;2024-03-23T12:25:37;0.63;;;0.53;;
24609;SDS011;77159;47.890;11.694;2024-03-23T12:28:04;0.50;;;0.50;;
24609;SDS011;77159;47.890;11.694;2024-03-23T12:30:35;0.90;;;0.70;;
24609;SDS011;77159;47.890;11.694;2024-03-23T12:33:04;0.60;;;0.60;;
24609;SDS011;77159;47.890;11.694;2024-03-23T12:35:31;0.63;;;0.60;;
24609;SDS011;77159;47.890;11.694;2024-03-23T12:37:57;0.53;;;0.53;;
24609;SDS011;77159;47.890;11.694;2024-03-23T12:40:23;0.70;;;0.70;;
24609;SDS011;77159;47.890;11.694;2024-03-23T12:42:49;0.60;;;0.60;;
24609;SDS011;77159;47.890;11.694;2024-03-23T12:45:16;0.50;;;0.50;;
24609;SDS011;77159;47.890;11.694;2024-03-23T12:47:42;0.60;;;0.60;;
24609;SDS011;77159;47.890;11.694;2024-03-23T12:50:08;0.83;;;0.80;;
24609;SDS011;77159;47.890;11.694;2024-03-23T12:52:35;0.50;;;0.50;;
24609;SDS011;77159;47.890;11.694;2024-03-23T12:55:01;0.67;;;0.60;;
24609;SDS011;77159;47.890;11.694;2024-03-23T12:57:28;0.37;;;0.37;;
24609;SDS011;77159;47.890;11.694;2024-03-23T12:59:54;0.50;;;0.50;;
24609;SDS011;77159;47.890;11.694;2024-03-23T13:02:22;0.73;;;0.60;;
24609;SDS011;77159;47.890;11.694;2024-03-23T13:04:49;0.70;;;0.70;;
24609;SDS011;77159;47.890;11.694;2024-03-23T13:07:15;0.40;;;0.40;;
24609;SDS011;77159;47.890;11.694;2024-03-23T13:09:42;0.67;;;0.50;;
24609;SDS011;77159;47.890;11.694;2024-03-23T13:12:08;0.50;;;0.50;;
24609;SDS011;77159;47.890;11.694;2024-03-23T13:14:34;0.53;;;0.53;;
24609;SDS011;77159;47.890;11.694;2024-03-23T13:17:00;0.60;;;0.60;;
24609;SDS011;77159;47.890;11.694;2024-03-23T13:19:28;0.33;;;0.33;;
24609;SDS011;77159;47.890;11.694;2024-03-23T13:21:56;0.60;;;0.60;;
24609;SDS011;77159;47.890;11.694;2024-03-23T13:24:22;0.50;;;0.50;;
24609;SDS011;77159;47.890;11.694;2024-03-23T13:26:49;0.53;;;0.53;;
24609;SDS011;77159;47.890;11.694;2024-03-23T13:29:16;0.63;;;0.60;;
24609;SDS011;77159;47.890;11.694;2024-03-23T13:31:42;0.70;;;0.70;;
24609;SDS011;77159;47.890;11.694;2024-03-23T13:34:08;0.50;;;0.50;;
24609;SDS011;77159;47.890;11.694;2024-03-23T13:36:35;0.70;;;0.70;;
24609;SDS011;77159;47.890;11.694;2024-03-23T13:39:01;0.70;;;0.70;;
24609;SDS011;77159;47.890;11.694;2024-03-23T13:41:31;0.60;;;0.60;;
24609;SDS011;77159;47.890;11.694;2024-03-23T13:43:57;1.00;;;0.83;;
24609;SDS011;77159;47.890;11.694;2024-03-23T13:46:23;1.50;;;0.70;;
24609;SDS011;77159;47.890;11.694;2024-03-23T13:48:49;1.37;;;0.63;;
24609;SDS011;77159;47.890;11.694;2024-03-23T13:51:15;1.10;;;0.80;;
24609;SDS011;77159;47.890;11.694;2024-03-23T13:53:50;1.07;;;1.00;;
24609;SDS011;77159;47.890;11.694;2024-03-23T13:56:16;1.17;;;1.07;;
24609;SDS011;77159;47.890;11.694;2024-03-23T13:58:43;1.20;;;0.80;;
24609;SDS011;77159;47.890;11.694;2024-03-23T14:01:11;0.80;;;0.80;;
24609;SDS011;77159;47.890;11.694;2024-03-23T14:03:39;1.00;;;0.90;;
24609;SDS011;77159;47.890;11.694;2024-03-23T14:06:05;1.40;;;0.93;;
24609;SDS011;77159;47.890;11.694;2024-03-23T14:08:32;1.10;;;1.00;;
24609;SDS011;77159;47.890;11.694;2024-03-23T14:11:01;0.63;;;0.63;;
24609;SDS011;77159;47.890;11.694;2024-03-23T14:13:29;1.47;;;1.00;;
24609;SDS011;77159;47.890;11.694;2024-03-23T14:15:55;0.70;;;0.70;;
24609;SDS011;77159;47.890;11.694;2024-03-23T14:18:22;1.30;;;0.80;;
24609;SDS011;77159;47.890;11.694;2024-03-23T14:20:48;0.70;;;0.70;;
24609;SDS011;77159;47.890;11.694;2024-03-23T14:23:14;1.73;;;0.83;;
24609;SDS011;77159;47.890;11.694;2024-03-23T14:25:40;1.60;;;0.63;;
24609;SDS011;77159;47.890;11.694;2024-03-23T14:28:07;1.07;;;0.83;;
24609;SDS011;77159;47.890;11.694;2024-03-23T14:30:38;1.03;;;0.73;;
24609;SDS011;77159;47.890;11.694;2024-03-23T14:33:05;1.00;;;0.73;;
24609;SDS011;77159;47.890;11.694;2024-03-23T14:35:31;1.77;;;1.00;;
24609;SDS011;77159;47.890;11.694;2024-03-23T14:37:58;1.23;;;1.13;;
24609;SDS011;77159;47.890;11.694;2024-03-23T14:40:24;1.13;;;0.80;;
24609;SDS011;77159;47.890;11.694;2024-03-23T14:42:52;1.00;;;0.87;;
24609;SDS011;77159;47.890;11.694;2024-03-23T14:45:19;3.10;;;1.23;;
24609;SDS011;77159;47.890;11.694;2024-03-23T14:47:45;1.13;;;1.00;;
24609;SDS011;77159;47.890;11.694;2024-03-23T14:50:11;1.50;;;1.37;;
24609;SDS011;77159;47.890;11.694;2024-03-23T14:52:40;2.40;;;1.67;;
24609;SDS011;77159;47.890;11.694;2024-03-23T14:55:07;2.03;;;1.43;;
24609;SDS011;77159;47.890;11.694;2024-03-23T14:57:34;1.83;;;1.70;;
24609;SDS011;77159;47.890;11.694;2024-03-23T15:00:00;5.30;;;1.67;;
24609;SDS011;77159;47.890;11.694;2024-03-23T15:02:30;1.63;;;1.20;;
24609;SDS011;77159;47.890;11.694;2024-03-23T15:04:57;2.00;;;1.10;;
24609;SDS011;77159;47.890;11.694;2024-03-23T15:07:23;2.50;;;1.00;;
24609;SDS011;77159;47.890;11.694;2024-03-23T15:09:49;1.83;;;1.13;;
24609;SDS011;77159;47.890;11.694;2024-03-23T15:12:15;0.90;;;0.83;;
24609;SDS011;77159;47.890;11.694;2024-03-23T15:14:41;1.33;;;0.93;;
24609;SDS011;77159;47.890;11.694;2024-03-23T15:17:08;1.83;;;1.17;;
24609;SDS011;77159;47.890;11.694;2024-03-23T15:19:34;1.37;;;0.97;;
24609;SDS011;77159;47.890;11.694;2024-03-23T15:22:01;2.03;;;1.30;;
24609;SDS011;77159;47.890;11.694;2024-03-23T15:24:27;2.13;;;1.30;;
24609;SDS011;77159;47.890;11.694;2024-03-23T15:26:53;1.10;;;1.00;;